sensor_id;sensor_type;location;lat;lon;timestamp;P1;durP1;ratioP1;P2;durP2;ratioP2
22129;SDS011;11231;50.746;4.272;2023-08-08T00:01:56;9.53;;;3.20;;
22129;SDS011;11231;50.746;4.272;2023-08-08T00:04:21;9.73;;;3.20;;
22129;SDS011;11231;50.746;4.272;2023-08-08T00:06:47;9.23;;;3.30;;
22129;SDS011;11231;50.746;4.272;2023-08-08T00:09:13;12.73;;;3.60;;
22129;SDS011;11231;50.746;4.272;2023-08-08T00:11:38;15.03;;;3.57;;
22129;SDS011;11231;50.746;4.272;2023-08-08T00:14:04;13.00;;;3.70;;
22129;SDS011;11231;50.746;4.272;2023-08-08T00:16:30;11.43;;;3.47;;
22129;SDS011;11231;50.746;4.272;2023-08-08T00:18:56;13.47;;;3.67;;
22129;SDS011;11231;50.746;4.272;2023-08-08T00:21:21;14.73;;;3.70;;
22129;SDS011;11231;50.746;4.272;2023-08-08T00:23:47;11.33;;;3.80;;
22129;SDS011;11231;50.746;4.272;2023-08-08T00:26:13;10.27;;;3.60;;
22129;SDS011;11231;50.746;4.272;2023-08-08T00:28:39;10.73;;;3.80;;
22129;SDS011;11231;50.746;4.272;2023-08-08T00:31:06;14.60;;;3.67;;
22129;SDS011;11231;50.746;4.272;2023-08-08T00:33:32;13.30;;;3.60;;
22129;SDS011;11231;50.746;4.272;2023-08-08T00:35:58;12.60;;;3.83;;
22129;SDS011;11231;50.746;4.272;2023-08-08T00:38:23;11.33;;;3.60;;
22129;SDS011;11231;50.746;4.272;2023-08-08T00:40:49;13.53;;;3.80;;
22129;SDS011;11231;50.746;4.272;2023-08-08T00:43:15;12.37;;;3.97;;
22129;SDS011;11231;50.746;4.272;2023-08-08T00:45:42;12.00;;;3.83;;
22129;SDS011;11231;50.746;4.272;2023-08-08T00:48:08;16.30;;;4.10;;
22129;SDS011;11231;50.746;4.272;2023-08-08T00:50:35;10.87;;;3.90;;
22129;SDS011;11231;50.746;4.272;2023-08-08T00:53:02;10.43;;;4.00;;
22129;SDS011;11231;50.746;4.272;2023-08-08T00:55:29;11.10;;;3.63;;
22129;SDS011;11231;50.746;4.272;2023-08-08T00:57:56;14.60;;;4.40;;
22129;SDS011;11231;50.746;4.272;2023-08-08T01:00:22;11.60;;;3.90;;
22129;SDS011;11231;50.746;4.272;2023-08-08T01:02:47;15.97;;;4.13;;
22129;SDS011;11231;50.746;4.272;2023-08-08T01:05:13;11.50;;;3.57;;
22129;SDS011;11231;50.746;4.272;2023-08-08T01:07:47;11.87;;;4.10;;
22129;SDS011;11231;50.746;4.272;2023-08-08T01:10:27;12.97;;;4.00;;
22129;SDS011;11231;50.746;4.272;2023-08-08T01:12:58;12.90;;;4.30;;
22129;SDS011;11231;50.746;4.272;2023-08-08T01:15:27;14.13;;;3.90;;
22129;SDS011;11231;50.746;4.272;2023-08-08T01:17:57;15.30;;;4.17;;
22129;SDS011;11231;50.746;4.272;2023-08-08T01:20:23;9.83;;;3.93;;
22129;SDS011;11231;50.746;4.272;2023-08-08T01:22:55;14.37;;;3.97;;
22129;SDS011;11231;50.746;4.272;2023-08-08T01:25:25;16.97;;;4.37;;
22129;SDS011;11231;50.746;4.272;2023-08-08T01:27:51;13.33;;;4.07;;
22129;SDS011;11231;50.746;4.272;2023-08-08T01:30:17;9.40;;;3.57;;
22129;SDS011;11231;50.746;4.272;2023-08-08T01:32:42;17.40;;;4.07;;
22129;SDS011;11231;50.746;4.272;2023-08-08T01:35:08;11.13;;;3.87;;
22129;SDS011;11231;50.746;4.272;2023-08-08T01:37:52;14.80;;;3.87;;
22129;SDS011;11231;50.746;4.272;2023-08-08T01:40:26;15.83;;;4.00;;
22129;SDS011;11231;50.746;4.272;2023-08-08T01:42:54;14.10;;;4.13;;
22129;SDS011;11231;50.746;4.272;2023-08-08T01:45:21;16.27;;;4.10;;
22129;SDS011;11231;50.746;4.272;2023-08-08T01:47:52;13.47;;;4.03;;
22129;SDS011;11231;50.746;4.272;2023-08-08T01:50:19;13.73;;;3.77;;
22129;SDS011;11231;50.746;4.272;2023-08-08T01:52:46;14.23;;;3.80;;
22129;SDS011;11231;50.746;4.272;2023-08-08T01:55:12;15.50;;;4.33;;
22129;SDS011;11231;50.746;4.272;2023-08-08T01:57:38;21.03;;;3.93;;
22129;SDS011;11231;50.746;4.272;2023-08-08T02:00:05;13.63;;;4.33;;
22129;SDS011;11231;50.746;4.272;2023-08-08T02:02:40;13.67;;;4.87;;
22129;SDS011;11231;50.746;4.272;2023-08-08T02:05:06;12.67;;;3.97;;
22129;SDS011;11231;50.746;4.272;2023-08-08T02:07:32;13.07;;;4.07;;
22129;SDS011;11231;50.746;4.272;2023-08-08T02:09:59;14.17;;;4.50;;
22129;SDS011;11231;50.746;4.272;2023-08-08T02:12:25;17.10;;;4.17;;
22129;SDS011;11231;50.746;4.272;2023-08-08T02:14:51;13.57;;;4.17;;
22129;SDS011;11231;50.746;4.272;2023-08-08T02:17:17;16.80;;;4.67;;
22129;SDS011;11231;50.746;4.272;2023-08-08T02:19:42;15.73;;;4.27;;
22129;SDS011;11231;50.746;4.272;2023-08-08T02:22:08;16.17;;;4.37;;
22129;SDS011;11231;50.746;4.272;2023-08-08T02:24:34;14.00;;;4.30;;
22129;SDS011;11231;50.746;4.272;2023-08-08T02:27:00;16.03;;;4.70;;
22129;SDS011;11231;50.746;4.272;2023-08-08T02:29:26;16.90;;;4.93;;
22129;SDS011;11231;50.746;4.272;2023-08-08T02:31:52;18.10;;;4.30;;
22129;SDS011;11231;50.746;4.272;2023-08-08T02:34:17;15.20;;;4.43;;
22129;SDS011;11231;50.746;4.272;2023-08-08T02:36:43;13.90;;;4.07;;
22129;SDS011;11231;50.746;4.272;2023-08-08T02:39:09;16.70;;;4.80;;
22129;SDS011;11231;50.746;4.272;2023-08-08T02:41:35;17.30;;;4.73;;
22129;SDS011;11231;50.746;4.272;2023-08-08T02:44:00;16.30;;;4.80;;
22129;SDS011;11231;50.746;4.272;2023-08-08T02:46:26;16.47;;;4.70;;
22129;SDS011;11231;50.746;4.272;2023-08-08T02:48:52;13.73;;;4.23;;
22129;SDS011;11231;50.746;4.272;2023-08-08T02:51:18;16.73;;;4.73;;
22129;SDS011;11231;50.746;4.272;2023-08-08T02:53:44;17.13;;;5.00;;
22129;SDS011;11231;50.746;4.272;2023-08-08T02:56:10;19.37;;;5.37;;
22129;SDS011;11231;50.746;4.272;2023-08-08T02:58:39;20.13;;;4.87;;
22129;SDS011;11231;50.746;4.272;2023-08-08T03:01:06;15.37;;;4.77;;
22129;SDS011;11231;50.746;4.272;2023-08-08T03:03:33;18.13;;;4.77;;
22129;SDS011;11231;50.746;4.272;2023-08-08T03:06:00;11.37;;;4.40;;
22129;SDS011;11231;50.746;4.272;2023-08-08T03:08:27;18.43;;;5.10;;
22129;SDS011;11231;50.746;4.272;2023-08-08T03:10:53;13.57;;;5.23;;
22129;SDS011;11231;50.746;4.272;2023-08-08T03:13:19;15.87;;;4.77;;
22129;SDS011;11231;50.746;4.272;2023-08-08T03:15:47;13.67;;;5.03;;
22129;SDS011;11231;50.746;4.272;2023-08-08T03:18:12;18.33;;;5.83;;
22129;SDS011;11231;50.746;4.272;2023-08-08T03:20:38;18.17;;;5.20;;
22129;SDS011;11231;50.746;4.272;2023-08-08T03:23:05;15.63;;;4.70;;
22129;SDS011;11231;50.746;4.272;2023-08-08T03:25:31;19.23;;;5.30;;
22129;SDS011;11231;50.746;4.272;2023-08-08T03:27:57;18.70;;;5.57;;
22129;SDS011;11231;50.746;4.272;2023-08-08T03:30:23;19.27;;;5.13;;
22129;SDS011;11231;50.746;4.272;2023-08-08T03:32:49;17.47;;;5.33;;
22129;SDS011;11231;50.746;4.272;2023-08-08T03:35:15;17.80;;;5.93;;
22129;SDS011;11231;50.746;4.272;2023-08-08T03:37:42;14.50;;;5.80;;
22129;SDS011;11231;50.746;4.272;2023-08-08T03:40:07;20.07;;;5.70;;
22129;SDS011;11231;50.746;4.272;2023-08-08T03:42:34;16.93;;;5.37;;
22129;SDS011;11231;50.746;4.272;2023-08-08T03:44:59;19.80;;;6.93;;
22129;SDS011;11231;50.746;4.272;2023-08-08T03:47:27;17.73;;;6.10;;
22129;SDS011;11231;50.746;4.272;2023-08-08T03:49:54;21.87;;;5.97;;
22129;SDS011;11231;50.746;4.272;2023-08-08T03:52:22;22.07;;;6.30;;
22129;SDS011;11231;50.746;4.272;2023-08-08T03:54:49;19.40;;;6.00;;
22129;SDS011;11231;50.746;4.272;2023-08-08T03:57:16;21.23;;;6.60;;
22129;SDS011;11231;50.746;4.272;2023-08-08T03:59:42;18.70;;;6.57;;
22129;SDS011;11231;50.746;4.272;2023-08-08T04:02:07;20.33;;;5.90;;
22129;SDS011;11231;50.746;4.272;2023-08-08T04:04:33;17.93;;;5.80;;
22129;SDS011;11231;50.746;4.272;2023-08-08T04:06:59;19.97;;;5.87;;
22129;SDS011;11231;50.746;4.272;2023-08-08T04:09:25;19.67;;;6.07;;
22129;SDS011;11231;50.746;4.272;2023-08-08T04:11:51;19.43;;;5.80;;
22129;SDS011;11231;50.746;4.272;2023-08-08T04:14:16;18.77;;;6.17;;
22129;SDS011;11231;50.746;4.272;2023-08-08T04:16:42;22.37;;;5.87;;
22129;SDS011;11231;50.746;4.272;2023-08-08T04:19:08;16.57;;;6.33;;
22129;SDS011;11231;50.746;4.272;2023-08-08T04:21:33;15.63;;;5.87;;
22129;SDS011;11231;50.746;4.272;2023-08-08T04:23:59;21.40;;;5.93;;
22129;SDS011;11231;50.746;4.272;2023-08-08T04:26:25;19.33;;;5.77;;
22129;SDS011;11231;50.746;4.272;2023-08-08T04:28:52;23.10;;;5.27;;
22129;SDS011;11231;50.746;4.272;2023-08-08T04:31:17;19.90;;;5.93;;
22129;SDS011;11231;50.746;4.272;2023-08-08T04:33:43;23.07;;;6.00;;
22129;SDS011;11231;50.746;4.272;2023-08-08T04:36:09;19.73;;;5.83;;
22129;SDS011;11231;50.746;4.272;2023-08-08T04:38:35;21.87;;;5.40;;
22129;SDS011;11231;50.746;4.272;2023-08-08T04:41:00;19.83;;;5.27;;
22129;SDS011;11231;50.746;4.272;2023-08-08T04:43:26;18.93;;;5.53;;
22129;SDS011;11231;50.746;4.272;2023-08-08T04:45:54;19.90;;;5.63;;
22129;SDS011;11231;50.746;4.272;2023-08-08T04:48:20;20.63;;;6.23;;
22129;SDS011;11231;50.746;4.272;2023-08-08T04:50:46;15.00;;;4.87;;
22129;SDS011;11231;50.746;4.272;2023-08-08T04:53:12;19.47;;;5.30;;
22129;SDS011;11231;50.746;4.272;2023-08-08T04:55:38;16.10;;;5.37;;
22129;SDS011;11231;50.746;4.272;2023-08-08T04:58:04;17.37;;;5.27;;
22129;SDS011;11231;50.746;4.272;2023-08-08T05:00:33;17.47;;;4.87;;
22129;SDS011;11231;50.746;4.272;2023-08-08T05:02:58;15.33;;;4.60;;
22129;SDS011;11231;50.746;4.272;2023-08-08T05:05:24;14.73;;;4.03;;
22129;SDS011;11231;50.746;4.272;2023-08-08T05:07:50;19.87;;;4.43;;
22129;SDS011;11231;50.746;4.272;2023-08-08T05:10:16;18.43;;;4.00;;
22129;SDS011;11231;50.746;4.272;2023-08-08T05:12:42;17.73;;;4.20;;
22129;SDS011;11231;50.746;4.272;2023-08-08T05:15:07;12.57;;;3.70;;
22129;SDS011;11231;50.746;4.272;2023-08-08T05:17:33;13.43;;;3.40;;
22129;SDS011;11231;50.746;4.272;2023-08-08T05:19:59;14.03;;;3.83;;
22129;SDS011;11231;50.746;4.272;2023-08-08T05:22:25;15.97;;;3.60;;
22129;SDS011;11231;50.746;4.272;2023-08-08T05:24:51;18.23;;;3.80;;
22129;SDS011;11231;50.746;4.272;2023-08-08T05:27:17;13.17;;;3.40;;
22129;SDS011;11231;50.746;4.272;2023-08-08T05:29:42;13.10;;;3.23;;
22129;SDS011;11231;50.746;4.272;2023-08-08T05:32:08;14.43;;;3.23;;
22129;SDS011;11231;50.746;4.272;2023-08-08T05:34:34;14.67;;;3.57;;
22129;SDS011;11231;50.746;4.272;2023-08-08T05:37:00;17.57;;;3.33;;
22129;SDS011;11231;50.746;4.272;2023-08-08T05:39:26;11.97;;;3.07;;
22129;SDS011;11231;50.746;4.272;2023-08-08T05:41:52;13.27;;;3.50;;
22129;SDS011;11231;50.746;4.272;2023-08-08T05:44:18;14.27;;;3.27;;
22129;SDS011;11231;50.746;4.272;2023-08-08T05:46:43;13.90;;;3.07;;
22129;SDS011;11231;50.746;4.272;2023-08-08T05:49:09;15.53;;;3.30;;
22129;SDS011;11231;50.746;4.272;2023-08-08T05:51:35;10.90;;;2.77;;
22129;SDS011;11231;50.746;4.272;2023-08-08T05:54:01;11.87;;;2.87;;
22129;SDS011;11231;50.746;4.272;2023-08-08T05:56:36;13.57;;;3.10;;
22129;SDS011;11231;50.746;4.272;2023-08-08T05:59:03;11.10;;;3.23;;
22129;SDS011;11231;50.746;4.272;2023-08-08T06:01:29;14.27;;;3.07;;
22129;SDS011;11231;50.746;4.272;2023-08-08T06:03:55;12.93;;;2.70;;
22129;SDS011;11231;50.746;4.272;2023-08-08T06:06:24;14.13;;;3.47;;
22129;SDS011;11231;50.746;4.272;2023-08-08T06:08:50;12.17;;;3.10;;
22129;SDS011;11231;50.746;4.272;2023-08-08T06:11:16;14.20;;;3.03;;
22129;SDS011;11231;50.746;4.272;2023-08-08T06:13:42;15.70;;;2.83;;
22129;SDS011;11231;50.746;4.272;2023-08-08T06:16:08;13.50;;;2.40;;
22129;SDS011;11231;50.746;4.272;2023-08-08T06:18:34;13.57;;;2.90;;
22129;SDS011;11231;50.746;4.272;2023-08-08T06:21:01;14.87;;;3.20;;
22129;SDS011;11231;50.746;4.272;2023-08-08T06:23:27;14.83;;;2.53;;
22129;SDS011;11231;50.746;4.272;2023-08-08T06:25:53;17.20;;;3.53;;
22129;SDS011;11231;50.746;4.272;2023-08-08T06:28:19;16.13;;;2.83;;
22129;SDS011;11231;50.746;4.272;2023-08-08T06:30:45;11.20;;;2.63;;
22129;SDS011;11231;50.746;4.272;2023-08-08T06:33:11;11.03;;;2.57;;
22129;SDS011;11231;50.746;4.272;2023-08-08T06:35:37;15.20;;;2.63;;
22129;SDS011;11231;50.746;4.272;2023-08-08T06:38:04;18.33;;;3.10;;
22129;SDS011;11231;50.746;4.272;2023-08-08T06:40:30;12.67;;;2.80;;
22129;SDS011;11231;50.746;4.272;2023-08-08T06:42:55;12.17;;;2.97;;
22129;SDS011;11231;50.746;4.272;2023-08-08T06:45:21;15.43;;;3.17;;
22129;SDS011;11231;50.746;4.272;2023-08-08T06:47:47;15.67;;;3.10;;
22129;SDS011;11231;50.746;4.272;2023-08-08T06:50:13;18.77;;;3.10;;
22129;SDS011;11231;50.746;4.272;2023-08-08T06:52:40;18.40;;;3.23;;
22129;SDS011;11231;50.746;4.272;2023-08-08T06:55:05;16.23;;;3.10;;
22129;SDS011;11231;50.746;4.272;2023-08-08T06:57:32;15.43;;;2.90;;
22129;SDS011;11231;50.746;4.272;2023-08-08T06:59:59;15.03;;;2.93;;
22129;SDS011;11231;50.746;4.272;2023-08-08T07:02:24;16.40;;;2.47;;
22129;SDS011;11231;50.746;4.272;2023-08-08T07:04:50;16.30;;;2.80;;
22129;SDS011;11231;50.746;4.272;2023-08-08T07:07:16;20.60;;;3.73;;
22129;SDS011;11231;50.746;4.272;2023-08-08T07:09:42;16.00;;;3.50;;
22129;SDS011;11231;50.746;4.272;2023-08-08T07:12:08;17.27;;;3.40;;
22129;SDS011;11231;50.746;4.272;2023-08-08T07:14:34;15.47;;;2.90;;
22129;SDS011;11231;50.746;4.272;2023-08-08T07:17:00;14.30;;;3.00;;
22129;SDS011;11231;50.746;4.272;2023-08-08T07:19:28;14.80;;;3.10;;
22129;SDS011;11231;50.746;4.272;2023-08-08T07:21:54;15.33;;;3.20;;
22129;SDS011;11231;50.746;4.272;2023-08-08T07:24:20;17.43;;;3.53;;
22129;SDS011;11231;50.746;4.272;2023-08-08T07:26:46;13.83;;;2.80;;
22129;SDS011;11231;50.746;4.272;2023-08-08T07:29:12;14.53;;;3.10;;
22129;SDS011;11231;50.746;4.272;2023-08-08T07:31:37;15.97;;;3.37;;
22129;SDS011;11231;50.746;4.272;2023-08-08T07:34:03;13.63;;;2.90;;
22129;SDS011;11231;50.746;4.272;2023-08-08T07:36:29;11.50;;;3.40;;
22129;SDS011;11231;50.746;4.272;2023-08-08T07:38:55;15.80;;;3.20;;
22129;SDS011;11231;50.746;4.272;2023-08-08T07:41:25;16.57;;;3.17;;
22129;SDS011;11231;50.746;4.272;2023-08-08T07:43:51;13.97;;;3.13;;
22129;SDS011;11231;50.746;4.272;2023-08-08T07:46:17;15.57;;;3.20;;
22129;SDS011;11231;50.746;4.272;2023-08-08T07:48:43;11.77;;;2.87;;
22129;SDS011;11231;50.746;4.272;2023-08-08T07:51:09;15.77;;;3.03;;
22129;SDS011;11231;50.746;4.272;2023-08-08T07:53:35;14.77;;;2.83;;
22129;SDS011;11231;50.746;4.272;2023-08-08T07:56:00;14.97;;;3.37;;
22129;SDS011;11231;50.746;4.272;2023-08-08T07:58:26;18.60;;;3.37;;
22129;SDS011;11231;50.746;4.272;2023-08-08T08:00:52;14.00;;;3.27;;
22129;SDS011;11231;50.746;4.272;2023-08-08T08:03:19;12.07;;;2.90;;
22129;SDS011;11231;50.746;4.272;2023-08-08T08:05:45;14.83;;;2.80;;
22129;SDS011;11231;50.746;4.272;2023-08-08T08:08:10;13.33;;;2.80;;
22129;SDS011;11231;50.746;4.272;2023-08-08T08:10:36;12.67;;;2.60;;
22129;SDS011;11231;50.746;4.272;2023-08-08T08:13:02;13.60;;;3.10;;
22129;SDS011;11231;50.746;4.272;2023-08-08T08:15:28;15.60;;;2.63;;
22129;SDS011;11231;50.746;4.272;2023-08-08T08:17:54;11.33;;;2.60;;
22129;SDS011;11231;50.746;4.272;2023-08-08T08:20:20;13.43;;;2.47;;
22129;SDS011;11231;50.746;4.272;2023-08-08T08:22:45;16.23;;;2.87;;
22129;SDS011;11231;50.746;4.272;2023-08-08T08:25:12;13.30;;;2.73;;
22129;SDS011;11231;50.746;4.272;2023-08-08T08:27:40;15.80;;;2.70;;
22129;SDS011;11231;50.746;4.272;2023-08-08T08:30:06;10.97;;;2.57;;
22129;SDS011;11231;50.746;4.272;2023-08-08T08:32:36;11.13;;;2.80;;
22129;SDS011;11231;50.746;4.272;2023-08-08T08:35:02;14.63;;;2.70;;
22129;SDS011;11231;50.746;4.272;2023-08-08T08:37:29;12.13;;;2.30;;
22129;SDS011;11231;50.746;4.272;2023-08-08T08:39:55;13.40;;;2.93;;
22129;SDS011;11231;50.746;4.272;2023-08-08T08:42:21;12.33;;;2.43;;
22129;SDS011;11231;50.746;4.272;2023-08-08T08:44:47;7.17;;;2.30;;
22129;SDS011;11231;50.746;4.272;2023-08-08T08:47:15;12.53;;;2.87;;
22129;SDS011;11231;50.746;4.272;2023-08-08T08:49:45;14.33;;;2.90;;
22129;SDS011;11231;50.746;4.272;2023-08-08T08:52:11;10.57;;;2.90;;
22129;SDS011;11231;50.746;4.272;2023-08-08T08:54:37;10.23;;;2.67;;
22129;SDS011;11231;50.746;4.272;2023-08-08T08:57:03;12.23;;;2.53;;
22129;SDS011;11231;50.746;4.272;2023-08-08T08:59:29;11.27;;;2.40;;
22129;SDS011;11231;50.746;4.272;2023-08-08T09:01:56;10.30;;;2.40;;
22129;SDS011;11231;50.746;4.272;2023-08-08T09:04:22;8.80;;;2.40;;
22129;SDS011;11231;50.746;4.272;2023-08-08T09:06:49;10.70;;;2.87;;
22129;SDS011;11231;50.746;4.272;2023-08-08T09:09:16;13.20;;;2.30;;
22129;SDS011;11231;50.746;4.272;2023-08-08T09:11:46;12.97;;;3.00;;
22129;SDS011;11231;50.746;4.272;2023-08-08T09:14:20;13.20;;;2.77;;
22129;SDS011;11231;50.746;4.272;2023-08-08T09:16:47;11.57;;;2.73;;
22129;SDS011;11231;50.746;4.272;2023-08-08T09:19:14;13.77;;;2.97;;
22129;SDS011;11231;50.746;4.272;2023-08-08T09:21:40;9.87;;;2.70;;
22129;SDS011;11231;50.746;4.272;2023-08-08T09:24:06;13.23;;;2.83;;
22129;SDS011;11231;50.746;4.272;2023-08-08T09:26:32;14.13;;;2.60;;
22129;SDS011;11231;50.746;4.272;2023-08-08T09:29:00;12.37;;;2.60;;
22129;SDS011;11231;50.746;4.272;2023-08-08T09:31:26;9.23;;;2.60;;
22129;SDS011;11231;50.746;4.272;2023-08-08T09:33:58;10.40;;;2.60;;
22129;SDS011;11231;50.746;4.272;2023-08-08T09:36:25;9.63;;;2.90;;
22129;SDS011;11231;50.746;4.272;2023-08-08T09:38:51;12.03;;;2.40;;
22129;SDS011;11231;50.746;4.272;2023-08-08T09:41:19;12.73;;;2.60;;
22129;SDS011;11231;50.746;4.272;2023-08-08T09:43:48;10.27;;;2.73;;
22129;SDS011;11231;50.746;4.272;2023-08-08T09:46:14;9.50;;;2.50;;
22129;SDS011;11231;50.746;4.272;2023-08-08T09:48:43;10.88;;;2.22;;
22129;SDS011;11231;50.746;4.272;2023-08-08T09:51:09;10.65;;;2.30;;
22129;SDS011;11231;50.746;4.272;2023-08-08T09:53:36;8.43;;;2.10;;
22129;SDS011;11231;50.746;4.272;2023-08-08T09:56:05;10.60;;;2.00;;
22129;SDS011;11231;50.746;4.272;2023-08-08T09:58:31;11.15;;;2.40;;
22129;SDS011;11231;50.746;4.272;2023-08-08T10:00:57;7.10;;;1.90;;
22129;SDS011;11231;50.746;4.272;2023-08-08T10:03:24;12.05;;;2.42;;
22129;SDS011;11231;50.746;4.272;2023-08-08T10:05:51;14.07;;;2.60;;
22129;SDS011;11231;50.746;4.272;2023-08-08T10:08:17;10.18;;;2.13;;
22129;SDS011;11231;50.746;4.272;2023-08-08T10:10:44;15.40;;;2.60;;
22129;SDS011;11231;50.746;4.272;2023-08-08T10:13:24;12.30;;;2.50;;
22129;SDS011;11231;50.746;4.272;2023-08-08T10:15:51;8.67;;;2.20;;
22129;SDS011;11231;50.746;4.272;2023-08-08T10:18:20;11.33;;;2.27;;
22129;SDS011;11231;50.746;4.272;2023-08-08T10:20:48;10.10;;;2.27;;
22129;SDS011;11231;50.746;4.272;2023-08-08T10:23:15;8.43;;;1.80;;
22129;SDS011;11231;50.746;4.272;2023-08-08T10:25:51;9.83;;;2.07;;
22129;SDS011;11231;50.746;4.272;2023-08-08T10:28:20;14.30;;;1.80;;
22129;SDS011;11231;50.746;4.272;2023-08-08T10:30:47;8.47;;;2.00;;
22129;SDS011;11231;50.746;4.272;2023-08-08T10:38:27;8.77;;;2.20;;
22129;SDS011;11231;50.746;4.272;2023-08-08T10:41:04;9.40;;;2.40;;
22129;SDS011;11231;50.746;4.272;2023-08-08T10:43:33;6.93;;;1.80;;
22129;SDS011;11231;50.746;4.272;2023-08-08T10:46:02;9.87;;;1.90;;
22129;SDS011;11231;50.746;4.272;2023-08-08T10:48:29;9.30;;;1.90;;
22129;SDS011;11231;50.746;4.272;2023-08-08T10:50:55;10.70;;;1.80;;
22129;SDS011;11231;50.746;4.272;2023-08-08T10:53:26;8.47;;;1.50;;
22129;SDS011;11231;50.746;4.272;2023-08-08T10:56:02;8.60;;;1.70;;
22129;SDS011;11231;50.746;4.272;2023-08-08T10:58:38;16.43;;;2.47;;
22129;SDS011;11231;50.746;4.272;2023-08-08T11:01:05;7.43;;;1.30;;
22129;SDS011;11231;50.746;4.272;2023-08-08T11:03:43;5.53;;;1.37;;
22129;SDS011;11231;50.746;4.272;2023-08-08T11:06:10;9.10;;;1.43;;
22129;SDS011;11231;50.746;4.272;2023-08-08T11:08:36;6.23;;;1.40;;
22129;SDS011;11231;50.746;4.272;2023-08-08T11:11:06;10.73;;;1.83;;
22129;SDS011;11231;50.746;4.272;2023-08-08T11:13:32;9.43;;;1.70;;
22129;SDS011;11231;50.746;4.272;2023-08-08T11:15:58;11.10;;;2.03;;
22129;SDS011;11231;50.746;4.272;2023-08-08T11:18:27;5.50;;;1.47;;
22129;SDS011;11231;50.746;4.272;2023-08-08T11:20:53;5.53;;;1.60;;
22129;SDS011;11231;50.746;4.272;2023-08-08T11:23:19;6.13;;;1.50;;
22129;SDS011;11231;50.746;4.272;2023-08-08T11:25:46;9.27;;;1.70;;
22129;SDS011;11231;50.746;4.272;2023-08-08T11:28:12;5.37;;;1.43;;
22129;SDS011;11231;50.746;4.272;2023-08-08T11:30:40;11.97;;;2.00;;
22129;SDS011;11231;50.746;4.272;2023-08-08T11:33:08;9.17;;;1.53;;
22129;SDS011;11231;50.746;4.272;2023-08-08T11:35:36;10.27;;;1.70;;
22129;SDS011;11231;50.746;4.272;2023-08-08T11:38:02;5.10;;;1.30;;
22129;SDS011;11231;50.746;4.272;2023-08-08T11:40:29;9.80;;;1.60;;
22129;SDS011;11231;50.746;4.272;2023-08-08T11:42:56;8.67;;;1.60;;
22129;SDS011;11231;50.746;4.272;2023-08-08T11:45:23;8.80;;;1.77;;
22129;SDS011;11231;50.746;4.272;2023-08-08T11:47:50;6.93;;;1.33;;
22129;SDS011;11231;50.746;4.272;2023-08-08T11:50:19;10.03;;;1.50;;
22129;SDS011;11231;50.746;4.272;2023-08-08T11:52:48;7.03;;;1.33;;
22129;SDS011;11231;50.746;4.272;2023-08-08T11:55:16;7.13;;;1.20;;
22129;SDS011;11231;50.746;4.272;2023-08-08T11:57:46;4.43;;;1.17;;
22129;SDS011;11231;50.746;4.272;2023-08-08T12:00:12;10.93;;;2.00;;
22129;SDS011;11231;50.746;4.272;2023-08-08T12:02:44;6.17;;;1.20;;
22129;SDS011;11231;50.746;4.272;2023-08-08T12:05:10;10.03;;;1.83;;
22129;SDS011;11231;50.746;4.272;2023-08-08T12:07:38;7.73;;;1.80;;
22129;SDS011;11231;50.746;4.272;2023-08-08T12:10:14;8.30;;;1.70;;
22129;SDS011;11231;50.746;4.272;2023-08-08T12:12:54;7.53;;;1.50;;
22129;SDS011;11231;50.746;4.272;2023-08-08T12:15:23;5.63;;;1.37;;
22129;SDS011;11231;50.746;4.272;2023-08-08T12:17:49;6.23;;;1.20;;
22129;SDS011;11231;50.746;4.272;2023-08-08T12:20:15;7.73;;;1.60;;
22129;SDS011;11231;50.746;4.272;2023-08-08T12:22:41;7.33;;;1.70;;
22129;SDS011;11231;50.746;4.272;2023-08-08T12:25:07;11.40;;;1.30;;
22129;SDS011;11231;50.746;4.272;2023-08-08T12:27:33;9.57;;;1.73;;
22129;SDS011;11231;50.746;4.272;2023-08-08T12:29:59;6.17;;;1.60;;
22129;SDS011;11231;50.746;4.272;2023-08-08T12:32:26;9.73;;;1.40;;
22129;SDS011;11231;50.746;4.272;2023-08-08T12:34:54;5.00;;;1.40;;
22129;SDS011;11231;50.746;4.272;2023-08-08T12:37:23;5.57;;;1.30;;
22129;SDS011;11231;50.746;4.272;2023-08-08T12:39:49;5.03;;;1.30;;
22129;SDS011;11231;50.746;4.272;2023-08-08T12:42:15;4.97;;;1.43;;
22129;SDS011;11231;50.746;4.272;2023-08-08T12:44:41;5.57;;;1.53;;
22129;SDS011;11231;50.746;4.272;2023-08-08T12:47:07;6.57;;;1.50;;
22129;SDS011;11231;50.746;4.272;2023-08-08T12:49:33;4.33;;;1.40;;
22129;SDS011;11231;50.746;4.272;2023-08-08T12:51:59;4.60;;;1.30;;
22129;SDS011;11231;50.746;4.272;2023-08-08T12:54:25;5.97;;;1.40;;
22129;SDS011;11231;50.746;4.272;2023-08-08T12:56:51;5.43;;;1.20;;
22129;SDS011;11231;50.746;4.272;2023-08-08T12:59:17;5.43;;;1.30;;
22129;SDS011;11231;50.746;4.272;2023-08-08T13:01:43;6.00;;;1.60;;
22129;SDS011;11231;50.746;4.272;2023-08-08T13:04:09;5.37;;;1.30;;
22129;SDS011;11231;50.746;4.272;2023-08-08T13:06:36;4.27;;;1.40;;
22129;SDS011;11231;50.746;4.272;2023-08-08T13:09:02;4.47;;;1.33;;
22129;SDS011;11231;50.746;4.272;2023-08-08T13:11:27;3.60;;;0.97;;
22129;SDS011;11231;50.746;4.272;2023-08-08T13:13:53;5.23;;;1.20;;
22129;SDS011;11231;50.746;4.272;2023-08-08T13:16:19;4.47;;;1.20;;
22129;SDS011;11231;50.746;4.272;2023-08-08T13:18:45;4.57;;;1.10;;
22129;SDS011;11231;50.746;4.272;2023-08-08T13:21:11;5.83;;;1.37;;
22129;SDS011;11231;50.746;4.272;2023-08-08T13:23:37;4.20;;;1.20;;
22129;SDS011;11231;50.746;4.272;2023-08-08T13:26:03;5.60;;;1.33;;
22129;SDS011;11231;50.746;4.272;2023-08-08T13:28:29;3.97;;;1.40;;
22129;SDS011;11231;50.746;4.272;2023-08-08T13:30:55;1.87;;;0.90;;
22129;SDS011;11231;50.746;4.272;2023-08-08T13:33:21;4.80;;;1.10;;
22129;SDS011;11231;50.746;4.272;2023-08-08T13:35:47;4.40;;;1.00;;
22129;SDS011;11231;50.746;4.272;2023-08-08T13:38:12;3.97;;;1.30;;
22129;SDS011;11231;50.746;4.272;2023-08-08T13:40:43;4.53;;;1.00;;
22129;SDS011;11231;50.746;4.272;2023-08-08T13:43:09;2.60;;;1.13;;
22129;SDS011;11231;50.746;4.272;2023-08-08T13:45:35;3.27;;;1.10;;
22129;SDS011;11231;50.746;4.272;2023-08-08T13:48:01;5.47;;;1.00;;
22129;SDS011;11231;50.746;4.272;2023-08-08T13:50:27;4.37;;;1.17;;
22129;SDS011;11231;50.746;4.272;2023-08-08T13:52:53;6.47;;;1.23;;
22129;SDS011;11231;50.746;4.272;2023-08-08T13:55:20;2.83;;;1.10;;
22129;SDS011;11231;50.746;4.272;2023-08-08T13:57:45;5.63;;;1.27;;
22129;SDS011;11231;50.746;4.272;2023-08-08T14:00:11;6.13;;;1.10;;
22129;SDS011;11231;50.746;4.272;2023-08-08T14:02:40;3.47;;;1.00;;
22129;SDS011;11231;50.746;4.272;2023-08-08T14:05:09;3.80;;;1.03;;
22129;SDS011;11231;50.746;4.272;2023-08-08T14:07:35;5.63;;;1.20;;
22129;SDS011;11231;50.746;4.272;2023-08-08T14:10:01;5.20;;;1.00;;
22129;SDS011;11231;50.746;4.272;2023-08-08T14:12:29;3.90;;;0.90;;
22129;SDS011;11231;50.746;4.272;2023-08-08T14:14:55;2.90;;;0.90;;
22129;SDS011;11231;50.746;4.272;2023-08-08T14:17:21;2.93;;;1.03;;
22129;SDS011;11231;50.746;4.272;2023-08-08T14:19:47;3.70;;;1.50;;
22129;SDS011;11231;50.746;4.272;2023-08-08T14:22:13;3.97;;;1.00;;
22129;SDS011;11231;50.746;4.272;2023-08-08T14:24:39;3.53;;;1.10;;
22129;SDS011;11231;50.746;4.272;2023-08-08T14:27:06;3.30;;;0.90;;
22129;SDS011;11231;50.746;4.272;2023-08-08T14:29:32;3.87;;;1.00;;
22129;SDS011;11231;50.746;4.272;2023-08-08T14:31:58;3.97;;;1.00;;
22129;SDS011;11231;50.746;4.272;2023-08-08T14:34:30;3.37;;;1.10;;
22129;SDS011;11231;50.746;4.272;2023-08-08T14:36:58;2.10;;;0.97;;
22129;SDS011;11231;50.746;4.272;2023-08-08T14:39:25;2.13;;;1.03;;
22129;SDS011;11231;50.746;4.272;2023-08-08T14:41:51;2.90;;;0.90;;